sensor_id;sensor_type;location;lat;lon;timestamp;pressure;altitude;pressure_sealevel;temperature;humidity
83631;BME280;73593;52.134;5.426;2024-01-30T00:02:10;102685.53;;;5.57;92.63
83631;BME280;73593;52.134;5.426;2024-01-30T00:04:39;102688.28;;;5.54;92.64
83631;BME280;73593;52.134;5.426;2024-01-30T00:07:10;102689.25;;;5.50;92.57
83631;BME280;73593;52.134;5.426;2024-01-30T00:09:38;102693.66;;;5.50;92.98
83631;BME280;73593;52.134;5.426;2024-01-30T00:12:06;102698.09;;;5.48;92.58
83631;BME280;73593;52.134;5.426;2024-01-30T00:14:33;102696.34;;;5.48;92.92
83631;BME280;73593;52.134;5.426;2024-01-30T00:16:59;102685.91;;;5.45;92.61
83631;BME280;73593;52.134;5.426;2024-01-30T00:19:28;102686.00;;;5.42;92.67
83631;BME280;73593;52.134;5.426;2024-01-30T00:21:55;102683.47;;;5.39;92.78
83631;BME280;73593;52.134;5.426;2024-01-30T00:24:21;102685.34;;;5.35;92.68
83631;BME280;73593;52.134;5.426;2024-01-30T00:26:51;102686.19;;;5.36;92.92
83631;BME280;73593;52.134;5.426;2024-01-30T00:29:20;102687.03;;;5.36;92.92
83631;BME280;73593;52.134;5.426;2024-01-30T00:31:51;102689.75;;;5.33;92.56
83631;BME280;73593;52.134;5.426;2024-01-30T00:34:19;102687.09;;;5.35;92.69
83631;BME280;73593;52.134;5.426;2024-01-30T00:36:45;102680.94;;;5.36;93.06
83631;BME280;73593;52.134;5.426;2024-01-30T00:39:12;102682.72;;;5.34;93.27
83631;BME280;73593;52.134;5.426;2024-01-30T00:41:39;102681.88;;;5.33;93.27
83631;BME280;73593;52.134;5.426;2024-01-30T00:44:05;102681.78;;;5.36;93.05
83631;BME280;73593;52.134;5.426;2024-01-30T00:46:32;102684.47;;;5.35;93.18
83631;BME280;73593;52.134;5.426;2024-01-30T00:48:59;102678.38;;;5.34;93.13
83631;BME280;73593;52.134;5.426;2024-01-30T00:51:25;102680.16;;;5.32;92.95
83631;BME280;73593;52.134;5.426;2024-01-30T00:53:52;102681.00;;;5.33;93.04
83631;BME280;73593;52.134;5.426;2024-01-30T00:56:19;102681.91;;;5.32;93.14
83631;BME280;73593;52.134;5.426;2024-01-30T00:58:52;102679.34;;;5.30;93.14
83631;BME280;73593;52.134;5.426;2024-01-30T01:01:21;102679.41;;;5.27;93.19
83631;BME280;73593;52.134;5.426;2024-01-30T01:03:49;102677.69;;;5.26;93.18
83631;BME280;73593;52.134;5.426;2024-01-30T01:06:18;102678.75;;;5.21;93.05
83631;BME280;73593;52.134;5.426;2024-01-30T01:08:44;102677.13;;;5.17;92.89
83631;BME280;73593;52.134;5.426;2024-01-30T01:11:15;102678.03;;;5.16;93.04
83631;BME280;73593;52.134;5.426;2024-01-30T01:13:42;102675.31;;;5.19;93.46
83631;BME280;73593;52.134;5.426;2024-01-30T01:16:11;102673.72;;;5.13;93.61
83631;BME280;73593;52.134;5.426;2024-01-30T01:18:41;102665.03;;;5.11;93.12
83631;BME280;73593;52.134;5.426;2024-01-30T01:21:07;102663.31;;;5.10;93.29
83631;BME280;73593;52.134;5.426;2024-01-30T01:23:34;102666.75;;;5.12;93.25
83631;BME280;73593;52.134;5.426;2024-01-30T01:26:03;102652.72;;;5.13;93.77
83631;BME280;73593;52.134;5.426;2024-01-30T01:28:30;102653.69;;;5.10;93.41
83631;BME280;73593;52.134;5.426;2024-01-30T01:31:03;102639.72;;;5.08;93.05
83631;BME280;73593;52.134;5.426;2024-01-30T01:33:35;102643.19;;;5.09;93.56
83631;BME280;73593;52.134;5.426;2024-01-30T01:36:04;102644.09;;;5.08;93.55
83631;BME280;73593;52.134;5.426;2024-01-30T01:38:31;102644.09;;;5.09;93.29
83631;BME280;73593;52.134;5.426;2024-01-30T01:40:58;102638.91;;;5.06;93.63
83631;BME280;73593;52.134;5.426;2024-01-30T01:43:27;102647.75;;;5.04;93.21
83631;BME280;73593;52.134;5.426;2024-01-30T01:45:54;102645.25;;;4.99;93.73
83631;BME280;73593;52.134;5.426;2024-01-30T01:48:21;102645.25;;;4.99;93.58
83631;BME280;73593;52.134;5.426;2024-01-30T01:50:51;102647.88;;;4.99;93.40
83631;BME280;73593;52.134;5.426;2024-01-30T01:53:23;102652.22;;;5.00;93.44
83631;BME280;73593;52.134;5.426;2024-01-30T01:55:50;102645.19;;;5.01;93.55
83631;BME280;73593;52.134;5.426;2024-01-30T01:58:22;102648.72;;;5.00;93.12
83631;BME280;73593;52.134;5.426;2024-01-30T02:00:51;102641.75;;;4.99;93.15
83631;BME280;73593;52.134;5.426;2024-01-30T02:03:18;102654.88;;;4.99;93.31
83631;BME280;73593;52.134;5.426;2024-01-30T02:05:50;102644.47;;;4.96;93.60
83631;BME280;73593;52.134;5.426;2024-01-30T02:08:17;102641.06;;;4.92;93.45
83631;BME280;73593;52.134;5.426;2024-01-30T02:10:44;102646.41;;;4.89;93.50
83631;BME280;73593;52.134;5.426;2024-01-30T02:13:18;102635.94;;;4.88;93.51
83631;BME280;73593;52.134;5.426;2024-01-30T02:15:49;102635.84;;;4.91;93.58
83631;BME280;73593;52.134;5.426;2024-01-30T02:18:15;102634.06;;;4.93;93.34
83631;BME280;73593;52.134;5.426;2024-01-30T02:20:43;102634.88;;;4.95;93.66
83631;BME280;73593;52.134;5.426;2024-01-30T02:23:10;102637.53;;;4.93;93.66
83631;BME280;73593;52.134;5.426;2024-01-30T02:25:40;102638.28;;;4.97;93.71
83631;BME280;73593;52.134;5.426;2024-01-30T02:28:16;102633.94;;;4.97;93.58
83631;BME280;73593;52.134;5.426;2024-01-30T02:30:46;102639.13;;;4.99;93.58
83631;BME280;73593;52.134;5.426;2024-01-30T02:33:15;102653.97;;;5.00;93.47
83631;BME280;73593;52.134;5.426;2024-01-30T02:35:47;102646.09;;;5.00;93.35
83631;BME280;73593;52.134;5.426;2024-01-30T02:38:19;102647.09;;;4.96;93.35
83631;BME280;73593;52.134;5.426;2024-01-30T02:40:45;102645.38;;;4.95;93.51
83631;BME280;73593;52.134;5.426;2024-01-30T02:43:12;102643.66;;;4.94;93.54
83631;BME280;73593;52.134;5.426;2024-01-30T02:45:38;102642.69;;;4.96;93.48
83631;BME280;73593;52.134;5.426;2024-01-30T02:48:05;102641.75;;;4.99;93.46
83631;BME280;73593;52.134;5.426;2024-01-30T02:50:32;102632.19;;;4.96;93.74
83631;BME280;73593;52.134;5.426;2024-01-30T02:53:01;102627.84;;;4.95;93.82
83631;BME280;73593;52.134;5.426;2024-01-30T02:55:28;102620.81;;;4.97;93.56
83631;BME280;73593;52.134;5.426;2024-01-30T02:57:55;102625.00;;;5.03;93.72
83631;BME280;73593;52.134;5.426;2024-01-30T03:00:24;102615.38;;;5.03;93.56
83631;BME280;73593;52.134;5.426;2024-01-30T03:02:53;102613.66;;;5.02;93.70
83631;BME280;73593;52.134;5.426;2024-01-30T03:05:20;102619.75;;;5.03;93.68
83631;BME280;73593;52.134;5.426;2024-01-30T03:07:49;102613.75;;;4.99;93.21
83631;BME280;73593;52.134;5.426;2024-01-30T03:10:16;102616.38;;;4.99;93.79
83631;BME280;73593;52.134;5.426;2024-01-30T03:12:43;102615.56;;;4.97;93.34
83631;BME280;73593;52.134;5.426;2024-01-30T03:15:10;102607.72;;;4.96;93.24
83631;BME280;73593;52.134;5.426;2024-01-30T03:17:36;102600.69;;;4.96;93.43
83631;BME280;73593;52.134;5.426;2024-01-30T03:20:04;102598.97;;;4.95;93.17
83631;BME280;73593;52.134;5.426;2024-01-30T03:22:33;102592.81;;;4.96;93.19
83631;BME280;73593;52.134;5.426;2024-01-30T03:25:00;102585.81;;;4.97;93.84
83631;BME280;73593;52.134;5.426;2024-01-30T03:27:27;102594.59;;;4.96;93.47
83631;BME280;73593;52.134;5.426;2024-01-30T03:29:54;102597.16;;;4.99;93.32
83631;BME280;73593;52.134;5.426;2024-01-30T03:32:20;102593.59;;;5.00;93.27
83631;BME280;73593;52.134;5.426;2024-01-30T03:34:47;102603.31;;;4.98;93.21
83631;BME280;73593;52.134;5.426;2024-01-30T03:37:13;102603.31;;;4.98;93.24
83631;BME280;73593;52.134;5.426;2024-01-30T03:39:43;102600.69;;;4.98;93.04
83631;BME280;73593;52.134;5.426;2024-01-30T03:42:12;102594.41;;;5.02;92.99
83631;BME280;73593;52.134;5.426;2024-01-30T03:44:38;102589.09;;;5.05;93.25
83631;BME280;73593;52.134;5.426;2024-01-30T03:47:07;102581.09;;;5.08;93.22
83631;BME280;73593;52.134;5.426;2024-01-30T03:49:34;102578.47;;;5.09;93.15
83631;BME280;73593;52.134;5.426;2024-01-30T03:52:01;102576.59;;;5.13;93.07
83631;BME280;73593;52.134;5.426;2024-01-30T03:54:32;102580.84;;;5.17;93.29
83631;BME280;73593;52.134;5.426;2024-01-30T03:56:59;102576.34;;;5.21;93.34
83631;BME280;73593;52.134;5.426;2024-01-30T03:59:28;102570.16;;;5.23;93.29
83631;BME280;73593;52.134;5.426;2024-01-30T04:01:55;102567.41;;;5.26;93.39
83631;BME280;73593;52.134;5.426;2024-01-30T04:04:24;102580.47;;;5.29;93.32
83631;BME280;73593;52.134;5.426;2024-01-30T04:06:51;102586.53;;;5.31;93.12
83631;BME280;73593;52.134;5.426;2024-01-30T04:09:18;102584.63;;;5.36;93.05
83631;BME280;73593;52.134;5.426;2024-01-30T04:11:45;102582.75;;;5.40;92.93
83631;BME280;73593;52.134;5.426;2024-01-30T04:14:11;102579.19;;;5.43;93.13
83631;BME280;73593;52.134;5.426;2024-01-30T04:16:38;102592.13;;;5.49;93.01
83631;BME280;73593;52.134;5.426;2024-01-30T04:19:04;102592.91;;;5.51;93.27
83631;BME280;73593;52.134;5.426;2024-01-30T04:21:31;102580.69;;;5.50;92.96
83631;BME280;73593;52.134;5.426;2024-01-30T04:24:00;102584.09;;;5.53;92.94
83631;BME280;73593;52.134;5.426;2024-01-30T04:26:31;102586.56;;;5.58;92.88
83631;BME280;73593;52.134;5.426;2024-01-30T04:29:00;102572.50;;;5.60;92.75
83631;BME280;73593;52.134;5.426;2024-01-30T04:31:27;102566.38;;;5.60;92.64
83631;BME280;73593;52.134;5.426;2024-01-30T04:33:54;102557.47;;;5.64;92.83
83631;BME280;73593;52.134;5.426;2024-01-30T04:36:20;102558.19;;;5.69;92.27
83631;BME280;73593;52.134;5.426;2024-01-30T04:38:49;102553.69;;;5.73;92.24
83631;BME280;73593;52.134;5.426;2024-01-30T04:41:16;102560.56;;;5.77;92.53
83631;BME280;73593;52.134;5.426;2024-01-30T04:43:45;102556.13;;;5.79;92.29
83631;BME280;73593;52.134;5.426;2024-01-30T04:46:11;102556.13;;;5.79;92.14
83631;BME280;73593;52.134;5.426;2024-01-30T04:48:40;102543.78;;;5.81;92.22
83631;BME280;73593;52.134;5.426;2024-01-30T04:51:07;102551.66;;;5.81;91.79
83631;BME280;73593;52.134;5.426;2024-01-30T04:53:34;102555.00;;;5.86;92.07
83631;BME280;73593;52.134;5.426;2024-01-30T04:56:03;102556.72;;;5.87;91.91
83631;BME280;73593;52.134;5.426;2024-01-30T04:58:30;102560.16;;;5.89;91.95
83631;BME280;73593;52.134;5.426;2024-01-30T05:01:02;102554.00;;;5.90;91.74
83631;BME280;73593;52.134;5.426;2024-01-30T05:03:33;102556.66;;;5.88;91.72
83631;BME280;73593;52.134;5.426;2024-01-30T05:06:00;102556.63;;;5.90;91.65
83631;BME280;73593;52.134;5.426;2024-01-30T05:08:30;102560.09;;;5.92;91.63
83631;BME280;73593;52.134;5.426;2024-01-30T05:11:00;102559.09;;;5.95;91.86
83631;BME280;73593;52.134;5.426;2024-01-30T05:13:32;102557.34;;;5.95;91.99
83631;BME280;73593;52.134;5.426;2024-01-30T05:16:02;102556.41;;;5.98;91.72
83631;BME280;73593;52.134;5.426;2024-01-30T05:18:29;102556.28;;;6.01;91.88
83631;BME280;73593;52.134;5.426;2024-01-30T05:20:56;102557.09;;;6.03;91.56
83631;BME280;73593;52.134;5.426;2024-01-30T05:23:23;102556.19;;;6.04;91.58
83631;BME280;73593;52.134;5.426;2024-01-30T05:25:49;102563.94;;;6.07;91.38
83631;BME280;73593;52.134;5.426;2024-01-30T05:28:16;102542.84;;;6.10;91.36
83631;BME280;73593;52.134;5.426;2024-01-30T05:30:42;102539.22;;;6.12;91.61
83631;BME280;73593;52.134;5.426;2024-01-30T05:33:09;102539.19;;;6.14;91.59
83631;BME280;73593;52.134;5.426;2024-01-30T05:35:40;102525.13;;;6.15;91.50
83631;BME280;73593;52.134;5.426;2024-01-30T05:38:11;102526.72;;;6.19;91.92
83631;BME280;73593;52.134;5.426;2024-01-30T05:40:37;102526.69;;;6.21;91.54
83631;BME280;73593;52.134;5.426;2024-01-30T05:43:04;102531.03;;;6.22;91.41
83631;BME280;73593;52.134;5.426;2024-01-30T05:45:33;102544.06;;;6.25;91.47
83631;BME280;73593;52.134;5.426;2024-01-30T05:48:01;102559.84;;;6.25;91.49
83631;BME280;73593;52.134;5.426;2024-01-30T05:50:30;102545.75;;;6.26;91.51
83631;BME280;73593;52.134;5.426;2024-01-30T05:53:01;102534.38;;;6.25;91.52
83631;BME280;73593;52.134;5.426;2024-01-30T05:55:31;102538.75;;;6.26;91.77
83631;BME280;73593;52.134;5.426;2024-01-30T05:58:02;102545.66;;;6.29;91.50
83631;BME280;73593;52.134;5.426;2024-01-30T06:00:34;102538.69;;;6.28;91.52
83631;BME280;73593;52.134;5.426;2024-01-30T06:03:02;102547.50;;;6.27;91.46
83631;BME280;73593;52.134;5.426;2024-01-30T06:05:31;102554.47;;;6.28;91.41
83631;BME280;73593;52.134;5.426;2024-01-30T06:07:58;102558.81;;;6.29;91.64
83631;BME280;73593;52.134;5.426;2024-01-30T06:10:25;102546.59;;;6.28;91.85
83631;BME280;73593;52.134;5.426;2024-01-30T06:12:54;102555.28;;;6.30;91.81
83631;BME280;73593;52.134;5.426;2024-01-30T06:15:23;102542.03;;;6.33;91.89
83631;BME280;73593;52.134;5.426;2024-01-30T06:17:53;102548.94;;;6.35;91.57
83631;BME280;73593;52.134;5.426;2024-01-30T06:20:19;102546.22;;;6.38;91.34
83631;BME280;73593;52.134;5.426;2024-01-30T06:22:46;102559.38;;;6.38;91.52
83631;BME280;73593;52.134;5.426;2024-01-30T06:25:13;102554.09;;;6.38;91.78
83631;BME280;73593;52.134;5.426;2024-01-30T06:27:42;102544.44;;;6.39;91.52
83631;BME280;73593;52.134;5.426;2024-01-30T06:30:09;102536.47;;;6.40;91.81
83631;BME280;73593;52.134;5.426;2024-01-30T06:32:38;102551.41;;;6.40;91.71
83631;BME280;73593;52.134;5.426;2024-01-30T06:35:05;102555.69;;;6.42;91.58
83631;BME280;73593;52.134;5.426;2024-01-30T06:37:32;102554.84;;;6.42;91.29
83631;BME280;73593;52.134;5.426;2024-01-30T06:39:59;102555.69;;;6.42;91.42
83631;BME280;73593;52.134;5.426;2024-01-30T06:42:26;102552.22;;;6.42;91.65
83631;BME280;73593;52.134;5.426;2024-01-30T06:44:52;102564.50;;;6.41;91.38
83631;BME280;73593;52.134;5.426;2024-01-30T06:47:24;102554.84;;;6.42;91.40
83631;BME280;73593;52.134;5.426;2024-01-30T06:49:50;102570.56;;;6.43;91.42
83631;BME280;73593;52.134;5.426;2024-01-30T06:52:20;102565.22;;;6.46;91.59
83631;BME280;73593;52.134;5.426;2024-01-30T06:54:49;102566.84;;;6.49;91.53
83631;BME280;73593;52.134;5.426;2024-01-30T06:57:16;102556.31;;;6.49;91.61
83631;BME280;73593;52.134;5.426;2024-01-30T06:59:45;102575.56;;;6.51;91.32
83631;BME280;73593;52.134;5.426;2024-01-30T07:02:14;102571.16;;;6.52;91.28
83631;BME280;73593;52.134;5.426;2024-01-30T07:04:41;102562.34;;;6.53;91.15
83631;BME280;73593;52.134;5.426;2024-01-30T07:07:12;102566.75;;;6.52;91.59
83631;BME280;73593;52.134;5.426;2024-01-30T07:09:44;102570.25;;;6.53;91.39
83631;BME280;73593;52.134;5.426;2024-01-30T07:12:11;102570.13;;;6.56;91.28
83631;BME280;73593;52.134;5.426;2024-01-30T07:14:37;102559.56;;;6.57;91.58
83631;BME280;73593;52.134;5.426;2024-01-30T07:17:06;102559.56;;;6.57;91.30
83631;BME280;73593;52.134;5.426;2024-01-30T07:19:37;102580.56;;;6.59;91.18
83631;BME280;73593;52.134;5.426;2024-01-30T07:22:04;102568.31;;;6.58;91.19
83631;BME280;73593;52.134;5.426;2024-01-30T07:24:33;102572.59;;;6.60;91.16
83631;BME280;73593;52.134;5.426;2024-01-30T07:27:00;102582.19;;;6.61;91.43
83631;BME280;73593;52.134;5.426;2024-01-30T07:29:29;102575.91;;;6.65;91.21
83631;BME280;73593;52.134;5.426;2024-01-30T07:31:57;102586.44;;;6.65;91.30
83631;BME280;73593;52.134;5.426;2024-01-30T07:34:24;102588.94;;;6.68;91.15
83631;BME280;73593;52.134;5.426;2024-01-30T07:36:51;102585.44;;;6.69;91.09
83631;BME280;73593;52.134;5.426;2024-01-30T07:39:21;102586.28;;;6.70;91.30
83631;BME280;73593;52.134;5.426;2024-01-30T07:41:48;102597.53;;;6.73;91.50
83631;BME280;73593;52.134;5.426;2024-01-30T07:44:15;102594.75;;;6.78;91.05
83631;BME280;73593;52.134;5.426;2024-01-30T07:46:45;102591.13;;;6.81;90.94
83631;BME280;73593;52.134;5.426;2024-01-30T07:49:14;102594.53;;;6.84;91.06
83631;BME280;73593;52.134;5.426;2024-01-30T07:51:43;102605.75;;;6.89;91.02
83631;BME280;73593;52.134;5.426;2024-01-30T07:54:11;102600.31;;;6.94;91.28
83631;BME280;73593;52.134;5.426;2024-01-30T07:56:38;102606.31;;;6.97;91.45
83631;BME280;73593;52.134;5.426;2024-01-30T07:59:05;102599.19;;;6.99;90.85
83631;BME280;73593;52.134;5.426;2024-01-30T08:01:31;102612.34;;;7.01;90.72
83631;BME280;73593;52.134;5.426;2024-01-30T08:04:01;102615.69;;;7.05;91.21
83631;BME280;73593;52.134;5.426;2024-01-30T08:06:27;102611.13;;;7.10;91.28
83631;BME280;73593;52.134;5.426;2024-01-30T08:08:54;102605.69;;;7.14;91.20
83631;BME280;73593;52.134;5.426;2024-01-30T08:11:21;102608.94;;;7.21;91.04
83631;BME280;73593;52.134;5.426;2024-01-30T08:13:52;102609.63;;;7.26;90.88
83631;BME280;73593;52.134;5.426;2024-01-30T08:16:19;102605.06;;;7.31;90.88
83631;BME280;73593;52.134;5.426;2024-01-30T08:18:48;102609.22;;;7.37;91.01
83631;BME280;73593;52.134;5.426;2024-01-30T08:21:15;102610.72;;;7.42;91.13
83631;BME280;73593;52.134;5.426;2024-01-30T08:23:44;102604.44;;;7.46;91.05
83631;BME280;73593;52.134;5.426;2024-01-30T08:26:14;102610.50;;;7.48;90.89
83631;BME280;73593;52.134;5.426;2024-01-30T08:28:40;102612.94;;;7.53;90.74
83631;BME280;73593;52.134;5.426;2024-01-30T08:31:10;102604.94;;;7.56;90.90
83631;BME280;73593;52.134;5.426;2024-01-30T08:33:37;102614.41;;;7.60;90.72
83631;BME280;73593;52.134;5.426;2024-01-30T08:36:07;102607.25;;;7.64;90.68
83631;BME280;73593;52.134;5.426;2024-01-30T08:38:37;102610.56;;;7.69;90.96
83631;BME280;73593;52.134;5.426;2024-01-30T08:41:03;102611.19;;;7.75;90.92
83631;BME280;73593;52.134;5.426;2024-01-30T08:43:32;102602.97;;;7.83;90.78
83631;BME280;73593;52.134;5.426;2024-01-30T08:46:00;102607.13;;;7.89;91.16
83631;BME280;73593;52.134;5.426;2024-01-30T08:48:26;102614.63;;;7.98;90.78
83631;BME280;73593;52.134;5.426;2024-01-30T08:50:56;102610.00;;;8.04;90.79
83631;BME280;73593;52.134;5.426;2024-01-30T08:53:23;102611.50;;;8.10;90.75
83631;BME280;73593;52.134;5.426;2024-01-30T08:55:52;102609.53;;;8.15;90.88
83631;BME280;73593;52.134;5.426;2024-01-30T08:58:19;102616.41;;;8.19;90.98
83631;BME280;73593;52.134;5.426;2024-01-30T09:00:45;102617.00;;;8.26;90.87
83631;BME280;73593;52.134;5.426;2024-01-30T09:03:12;102613.97;;;8.35;90.91
83631;BME280;73593;52.134;5.426;2024-01-30T09:05:39;102617.28;;;8.40;90.96
83631;BME280;73593;52.134;5.426;2024-01-30T09:08:08;102618.53;;;8.52;90.89
83631;BME280;73593;52.134;5.426;2024-01-30T09:10:35;102612.59;;;8.67;90.83
83631;BME280;73593;52.134;5.426;2024-01-30T09:13:01;102614.78;;;8.78;90.77
83631;BME280;73593;52.134;5.426;2024-01-30T09:15:30;102616.91;;;8.88;90.40
83631;BME280;73593;52.134;5.426;2024-01-30T09:17:57;102605.84;;;8.99;90.35
83631;BME280;73593;52.134;5.426;2024-01-30T09:20:26;102622.84;;;9.12;89.97
83631;BME280;73593;52.134;5.426;2024-01-30T09:22:55;102625.09;;;9.22;90.14
83631;BME280;73593;52.134;5.426;2024-01-30T09:25:24;102635.38;;;9.28;89.33
83631;BME280;73593;52.134;5.426;2024-01-30T09:27:55;102625.41;;;9.33;89.30
83631;BME280;73593;52.134;5.426;2024-01-30T09:30:24;102632.38;;;9.35;89.02
83631;BME280;73593;52.134;5.426;2024-01-30T09:32:51;102633.13;;;9.37;88.68
83631;BME280;73593;52.134;5.426;2024-01-30T09:35:18;102629.34;;;9.43;88.77
83631;BME280;73593;52.134;5.426;2024-01-30T09:37:47;102631.91;;;9.45;88.32
83631;BME280;73593;52.134;5.426;2024-01-30T09:40:18;102632.72;;;9.47;88.17
83631;BME280;73593;52.134;5.426;2024-01-30T09:42:50;102640.50;;;9.50;87.92
83631;BME280;73593;52.134;5.426;2024-01-30T09:45:17;102639.34;;;9.55;87.89
83631;BME280;73593;52.134;5.426;2024-01-30T09:47:45;102648.94;;;9.58;87.65
83631;BME280;73593;52.134;5.426;2024-01-30T09:50:15;102650.47;;;9.62;87.21
83631;BME280;73593;52.134;5.426;2024-01-30T09:52:43;102645.19;;;9.62;87.21
83631;BME280;73593;52.134;5.426;2024-01-30T09:55:13;102653.97;;;9.62;87.29
83631;BME280;73593;52.134;5.426;2024-01-30T09:57:42;102650.41;;;9.63;87.10
83631;BME280;73593;52.134;5.426;2024-01-30T10:00:09;102643.41;;;9.62;87.22
83631;BME280;73593;52.134;5.426;2024-01-30T10:02:36;102658.13;;;9.68;86.97
83631;BME280;73593;52.134;5.426;2024-01-30T10:05:09;102658.00;;;9.71;87.13
83631;BME280;73593;52.134;5.426;2024-01-30T10:07:36;102654.34;;;9.74;86.46
83631;BME280;73593;52.134;5.426;2024-01-30T10:10:05;102657.75;;;9.76;86.23
83631;BME280;73593;52.134;5.426;2024-01-30T10:12:35;102654.25;;;9.75;86.58
83631;BME280;73593;52.134;5.426;2024-01-30T10:15:07;102649.81;;;9.76;86.56
83631;BME280;73593;52.134;5.426;2024-01-30T10:17:37;102652.41;;;9.77;86.42
83631;BME280;73593;52.134;5.426;2024-01-30T10:20:07;102656.69;;;9.80;86.35
83631;BME280;73593;52.134;5.426;2024-01-30T10:22:34;102664.31;;;9.86;86.26
83631;BME280;73593;52.134;5.426;2024-01-30T10:25:01;102661.47;;;9.90;86.06
83631;BME280;73593;52.134;5.426;2024-01-30T10:27:32;102648.88;;;9.95;85.97
83631;BME280;73593;52.134;5.426;2024-01-30T10:29:58;102648.56;;;10.02;85.94
83631;BME280;73593;52.134;5.426;2024-01-30T10:32:25;102639.31;;;10.10;85.21
83631;BME280;73593;52.134;5.426;2024-01-30T10:34:52;102656.53;;;10.19;85.52
83631;BME280;73593;52.134;5.426;2024-01-30T10:37:24;102657.16;;;10.24;84.79
83631;BME280;73593;52.134;5.426;2024-01-30T10:39:53;102650.78;;;10.28;84.90
83631;BME280;73593;52.134;5.426;2024-01-30T10:42:26;102646.03;;;10.35;84.81
83631;BME280;73593;52.134;5.426;2024-01-30T10:45:02;102639.66;;;10.39;84.73
83631;BME280;73593;52.134;5.426;2024-01-30T10:47:34;102645.81;;;10.39;84.30
83631;BME280;73593;52.134;5.426;2024-01-30T10:50:03;102655.63;;;10.37;83.96
83631;BME280;73593;52.134;5.426;2024-01-30T10:52:32;102657.47;;;10.35;83.61
83631;BME280;73593;52.134;5.426;2024-01-30T10:55:00;102657.66;;;10.32;84.20
83631;BME280;73593;52.134;5.426;2024-01-30T10:57:27;102663.81;;;10.33;84.17
83631;BME280;73593;52.134;5.426;2024-01-30T10:59:58;102652.09;;;10.37;83.56
83631;BME280;73593;52.134;5.426;2024-01-30T11:02:26;102656.94;;;10.46;83.33
83631;BME280;73593;52.134;5.426;2024-01-30T11:04:57;102661.16;;;10.50;82.93
83631;BME280;73593;52.134;5.426;2024-01-30T11:07:28;102662.69;;;10.54;82.55
83631;BME280;73593;52.134;5.426;2024-01-30T11:12:42;102657.25;;;10.57;82.00
83631;BME280;73593;52.134;5.426;2024-01-30T11:15:13;102659.06;;;10.57;80.83
83631;BME280;73593;52.134;5.426;2024-01-30T11:17:45;102682.47;;;10.64;81.30
83631;BME280;73593;52.134;5.426;2024-01-30T11:20:30;102674.13;;;10.72;81.03
83631;BME280;73593;52.134;5.426;2024-01-30T11:23:02;102670.22;;;10.79;80.70
83631;BME280;73593;52.134;5.426;2024-01-30T11:25:33;102676.38;;;10.80;80.62
83631;BME280;73593;52.134;5.426;2024-01-30T11:28:00;102665.94;;;10.76;80.79
83631;BME280;73593;52.134;5.426;2024-01-30T11:30:31;102670.72;;;10.70;80.50
83631;BME280;73593;52.134;5.426;2024-01-30T11:33:04;102675.31;;;10.66;80.28
83631;BME280;73593;52.134;5.426;2024-01-30T11:35:33;102676.31;;;10.64;80.31
83631;BME280;73593;52.134;5.426;2024-01-30T11:38:01;102679.06;;;10.62;79.49
83631;BME280;73593;52.134;5.426;2024-01-30T11:40:29;102681.16;;;10.56;79.56
83631;BME280;73593;52.134;5.426;2024-01-30T11:42:58;102699.41;;;10.44;77.99
83631;BME280;73593;52.134;5.426;2024-01-30T11:45:28;102702.56;;;10.34;78.37
83631;BME280;73593;52.134;5.426;2024-01-30T11:47:55;102695.03;;;10.26;78.41
83631;BME280;73593;52.134;5.426;2024-01-30T11:50:23;102706.81;;;10.19;78.51
83631;BME280;73593;52.134;5.426;2024-01-30T11:52:51;102715.91;;;10.13;78.26
83631;BME280;73593;52.134;5.426;2024-01-30T11:55:18;102709.34;;;10.03;78.10
83631;BME280;73593;52.134;5.426;2024-01-30T11:57:46;102713.00;;;10.01;78.34
83631;BME280;73593;52.134;5.426;2024-01-30T12:00:16;102707.28;;;9.91;77.88
83631;BME280;73593;52.134;5.426;2024-01-30T12:02:44;102710.16;;;9.86;78.50
83631;BME280;73593;52.134;5.426;2024-01-30T12:05:13;102706.84;;;9.81;78.29
83631;BME280;73593;52.134;5.426;2024-01-30T12:07:46;102711.25;;;9.82;78.45
83631;BME280;73593;52.134;5.426;2024-01-30T12:10:16;102710.44;;;9.80;78.16
83631;BME280;73593;52.134;5.426;2024-01-30T12:12:46;102705.16;;;9.80;78.56
83631;BME280;73593;52.134;5.426;2024-01-30T12:15:14;102713.16;;;9.79;78.71
83631;BME280;73593;52.134;5.426;2024-01-30T12:17:41;102722.03;;;9.78;78.88
83631;BME280;73593;52.134;5.426;2024-01-30T12:20:13;102715.16;;;9.74;78.53
83631;BME280;73593;52.134;5.426;2024-01-30T12:25:11;102728.66;;;9.67;78.44
83631;BME280;73593;52.134;5.426;2024-01-30T12:27:42;102741.59;;;9.55;77.91
83631;BME280;73593;52.134;5.426;2024-01-30T12:30:11;102728.09;;;9.42;78.05
83631;BME280;73593;52.134;5.426;2024-01-30T12:32:48;102751.59;;;9.29;78.58
83631;BME280;73593;52.134;5.426;2024-01-30T12:35:20;102760.06;;;9.17;78.98
83631;BME280;73593;52.134;5.426;2024-01-30T12:37:49;102771.91;;;9.08;79.05
83631;BME280;73593;52.134;5.426;2024-01-30T12:40:19;102761.78;;;8.98;79.71
83631;BME280;73593;52.134;5.426;2024-01-30T12:42:51;102770.84;;;8.92;79.36
83631;BME280;73593;52.134;5.426;2024-01-30T12:45:19;102762.16;;;8.88;79.56
83631;BME280;73593;52.134;5.426;2024-01-30T12:47:49;102759.59;;;8.87;79.29
83631;BME280;73593;52.134;5.426;2024-01-30T12:50:16;102768.31;;;8.89;79.32
83631;BME280;73593;52.134;5.426;2024-01-30T12:52:44;102767.59;;;8.85;79.09
83631;BME280;73593;52.134;5.426;2024-01-30T12:55:15;102751.75;;;8.85;79.32
83631;BME280;73593;52.134;5.426;2024-01-30T12:57:42;102756.09;;;8.86;79.18
83631;BME280;73593;52.134;5.426;2024-01-30T13:00:11;102751.69;;;8.87;78.94
83631;BME280;73593;52.134;5.426;2024-01-30T13:02:38;102756.22;;;8.83;78.85
83631;BME280;73593;52.134;5.426;2024-01-30T13:05:07;102754.38;;;8.85;79.09
83631;BME280;73593;52.134;5.426;2024-01-30T13:07:37;102747.31;;;8.86;78.50
83631;BME280;73593;52.134;5.426;2024-01-30T13:10:03;102764.09;;;8.85;79.00
83631;BME280;73593;52.134;5.426;2024-01-30T13:12:33;102751.81;;;8.84;78.86